Time;durP1;ratioP1;P1;durP2;ratioP2;P2;SDS_P1;SDS_P2;PMS_P1;PMS_P2;Temp;Humidity;BMP_temperature;BMP_pressure;BME280_temperature;BME280_humidity;BME280_pressure;Samples;Min_cycle;Max_cycle;Signal;HPM_P1;HPM_P2
2021/06/11 00:01:25;;;;;;;23.67;15.10;;;17.50;83.60;;;;;;5049443;28;20082;-67
2021/06/11 00:03:51;;;;;;;20.25;14.27;;;17.40;82.30;;;;;;5045104;28;20090;-66
2021/06/11 00:06:18;;;;;;;21.65;13.80;;;17.90;84.20;;;;;;5050899;28;20117;-65
2021/06/11 00:08:44;;;;;;;22.35;14.73;;;17.30;83.30;;;;;;5048321;28;20132;-67
2021/06/11 00:11:09;;;;;;;22.10;14.73;;;17.30;83.30;;;;;;5049057;28;20189;-66
2021/06/11 00:13:35;;;;;;;27.58;16.15;;;17.30;83.90;;;;;;5048671;28;20089;-66
2021/06/11 00:16:01;;;;;;;21.20;15.18;;;17.20;84.70;;;;;;5033138;28;20092;-66
2021/06/11 00:18:27;;;;;;;23.67;15.32;;;17.10;84.70;;;;;;5033740;28;20208;-67
2021/06/11 00:20:54;;;;;;;20.38;14.10;;;17.10;84.80;;;;;;5048656;28;20547;-66
2021/06/11 00:23:23;;;;;;;22.00;15.20;;;17.10;85.50;;;;;;5049068;28;20100;-66
2021/06/11 00:25:49;;;;;;;26.63;17.38;;;17.00;86.20;;;;;;5036660;28;20081;-66
2021/06/11 00:28:15;;;;;;;26.65;17.17;;;16.80;85.30;;;;;;5046587;28;20093;-67
2021/06/11 00:30:42;;;;;;;25.20;15.82;;;16.90;85.20;;;;;;5050039;28;20604;-66
2021/06/11 00:33:09;;;;;;;25.17;17.15;;;17.00;85.30;;;;;;5048070;28;20627;-65
2021/06/11 00:35:35;;;;;;;22.17;14.82;;;16.90;84.70;;;;;;5048493;28;20088;-65
2021/06/11 00:38:03;;;;;;;22.33;15.30;;;16.90;84.60;;;;;;5045702;28;20147;-66
2021/06/11 00:40:29;;;;;;;23.73;15.63;;;16.90;84.50;;;;;;5049349;28;20082;-65
2021/06/11 00:42:55;;;;;;;22.08;14.85;;;16.90;83.80;;;;;;5047318;28;20565;-65
2021/06/11 00:45:21;;;;;;;25.55;16.10;;;16.90;84.30;;;;;;5047901;28;20090;-66
2021/06/11 00:47:47;;;;;;;20.98;15.60;;;17.00;86.60;;;;;;5040061;28;20112;-66
2021/06/11 00:50:23;;;;;;;22.10;15.57;;;15.50;87.00;;;;;;5048149;28;20132;-66
2021/06/11 00:52:54;;;;;;;27.13;16.10;;;16.80;86.10;;;;;;5048833;28;20085;-66
2021/06/11 00:55:21;;;;;;;25.23;16.42;;;16.80;85.70;;;;;;5047891;28;20096;-66
2021/06/11 00:57:48;;;;;;;23.10;16.17;;;16.60;87.20;;;;;;5048106;28;20168;-65
2021/06/11 01:00:15;;;;;;;22.05;15.48;;;16.70;86.00;;;;;;5049463;28;20539;-65
2021/06/11 01:02:41;;;;;;;25.98;15.98;;;16.70;86.10;;;;;;5048020;28;20094;-66
2021/06/11 01:05:09;;;;;;;21.83;14.93;;;17.40;87.40;;;;;;5049587;28;20089;-67
2021/06/11 01:07:42;;;;;;;24.52;16.00;;;16.60;86.50;;;;;;5048951;28;20211;-66
2021/06/11 01:10:09;;;;;;;26.42;16.70;;;16.40;87.40;;;;;;5038242;28;20136;-66
2021/06/11 01:12:37;;;;;;;22.33;14.85;;;16.50;86.80;;;;;;5045304;28;20093;-65
2021/06/11 01:15:06;;;;;;;24.60;16.52;;;16.40;87.50;;;;;;5048476;28;20139;-66
2021/06/11 01:17:34;;;;;;;26.83;18.27;;;16.70;86.00;;;;;;5046686;28;20199;-66
2021/06/11 01:20:03;;;;;;;26.85;18.38;;;17.30;90.10;;;;;;5047961;28;20113;-66
2021/06/11 01:22:41;;;;;;;23.00;16.75;;;16.40;88.20;;;;;;5049476;28;20135;-66
2021/06/11 01:25:12;;;;;;;25.90;17.42;;;16.40;87.50;;;;;;5044991;28;20081;-67
2021/06/11 01:27:41;;;;;;;26.90;17.10;;;17.70;88.60;;;;;;5046751;28;20114;-67
2021/06/11 01:30:15;;;;;;;25.93;16.63;;;16.30;87.00;;;;;;5048439;28;20541;-66
2021/06/11 01:32:44;;;;;;;23.50;15.90;;;17.30;87.90;;;;;;5048319;28;20335;-66
2021/06/11 01:35:16;;;;;;;23.70;16.45;;;16.00;86.20;;;;;;5044576;28;20085;-66
2021/06/11 01:37:43;;;;;;;26.38;16.60;;;16.50;86.60;;;;;;5052360;28;20173;-66
2021/06/11 01:40:11;;;;;;;25.13;16.05;;;17.60;87.70;;;;;;5052352;28;20081;-66
2021/06/11 01:42:39;;;;;;;;;;;16.20;86.60;;;;;;5052719;28;20090;-66
2021/06/11 01:45:09;;;;;;;26.85;16.02;;;16.60;87.00;;;;;;5051580;28;20360;-66
2021/06/11 01:47:43;;;;;;;22.23;16.15;;;16.10;86.20;;;;;;5050720;28;20102;-66
2021/06/11 01:50:15;;;;;;;25.00;16.80;;;16.20;86.30;;;;;;5050483;28;20125;-66
2021/06/11 01:52:42;;;;;;;27.17;15.85;;;16.20;86.20;;;;;;5050378;28;20100;-65
2021/06/11 01:55:09;;;;;;;26.08;17.05;;;16.20;87.50;;;;;;5052255;28;20155;-66
2021/06/11 01:57:36;;;;;;;26.63;16.92;;;16.10;87.20;;;;;;5050606;28;20147;-66
2021/06/11 02:00:04;;;;;;;28.75;16.90;;;16.30;87.40;;;;;;5048488;28;20100;-67
2021/06/11 02:02:30;;;;;;;27.35;17.42;;;16.20;89.60;;;;;;5050888;28;20112;-66
2021/06/11 02:04:56;;;;;;;30.48;18.92;;;16.10;88.00;;;;;;5052640;28;20566;-66
2021/06/11 02:07:24;;;;;;;25.20;16.70;;;15.80;89.20;;;;;;5049942;28;20167;-66
2021/06/11 02:09:51;;;;;;;25.55;16.42;;;16.00;88.50;;;;;;5041214;28;20097;-65
2021/06/11 02:12:18;;;;;;;28.25;16.48;;;16.00;90.00;;;;;;5047129;28;20094;-65
2021/06/11 02:14:45;;;;;;;29.38;18.30;;;15.90;89.70;;;;;;5050743;28;20143;-64
2021/06/11 02:17:12;;;;;;;25.70;16.35;;;15.80;89.70;;;;;;5046154;28;20098;-64
2021/06/11 02:19:41;;;;;;;26.42;17.27;;;16.00;90.80;;;;;;5047470;28;20135;-66
2021/06/11 02:22:09;;;;;;;25.30;15.40;;;15.90;90.60;;;;;;5049078;28;20108;-66
2021/06/11 02:24:40;;;;;;;21.27;15.07;;;15.80;90.10;;;;;;5048291;28;20559;-66
2021/06/11 02:27:07;;;;;;;23.08;14.55;;;15.00;88.60;;;;;;5050049;28;20101;-67
2021/06/11 02:29:36;;;;;;;36.92;16.42;;;15.70;90.30;;;;;;5050023;28;20085;-66
2021/06/11 02:32:04;;;;;;;;;;;15.70;90.00;;;;;;5052497;28;20089;-66
2021/06/11 02:34:30;;;;;;;21.67;14.43;;;15.70;91.10;;;;;;5050683;28;20015;-66
2021/06/11 02:36:56;;;;;;;26.25;17.52;;;15.90;90.90;;;;;;5049363;28;20117;-66
2021/06/11 02:39:22;;;;;;;24.80;17.02;;;15.80;89.50;;;;;;5052908;28;20089;-66
2021/06/11 02:41:53;;;;;;;27.05;17.55;;;15.60;89.60;;;;;;5051574;28;20104;-65
2021/06/11 02:44:21;;;;;;;28.67;17.73;;;15.50;90.60;;;;;;5037260;28;20124;-65
2021/06/11 02:47:08;;;;;;;28.10;17.58;;;15.60;90.00;;;;;;5050593;28;20105;-66
2021/06/11 02:49:48;;;;;;;27.25;16.63;;;13.80;88.40;;;;;;5037310;28;20121;-66
2021/06/11 02:52:15;;;;;;;29.40;17.42;;;13.80;89.70;;;;;;5050636;28;20101;-67
2021/06/11 02:54:44;;;;;;;29.33;17.65;;;15.40;90.00;;;;;;5050351;28;20092;-66
2021/06/11 02:57:29;;;;;;;29.73;17.27;;;15.40;89.90;;;;;;5049076;28;20597;-66
2021/06/11 03:00:01;;;;;;;27.17;17.45;;;15.40;89.80;;;;;;5038115;28;20101;-66
2021/06/11 03:02:31;;;;;;;27.27;17.25;;;15.40;90.30;;;;;;5050428;28;20089;-65
2021/06/11 03:04:58;;;;;;;30.52;17.10;;;15.20;90.20;;;;;;5039383;28;20143;-66
2021/06/11 03:07:28;;;;;;;26.45;16.42;;;15.40;90.40;;;;;;5049682;28;20419;-67
2021/06/11 03:10:02;;;;;;;27.15;16.98;;;15.40;90.00;;;;;;5047456;28;20124;-66
2021/06/11 03:12:31;;;;;;;28.92;16.75;;;16.60;90.10;;;;;;5051099;28;20192;-66
2021/06/11 03:14:57;;;;;;;31.45;18.13;;;15.40;89.00;;;;;;5040722;28;20100;-65
2021/06/11 03:17:28;;;;;;;27.75;17.55;;;15.40;90.20;;;;;;5049487;28;20097;-65
2021/06/11 03:19:57;;;;;;;28.27;18.27;;;15.00;90.70;;;;;;5045278;28;20435;-65
2021/06/11 03:22:29;;;;;;;28.85;17.58;;;15.20;90.20;;;;;;5050727;28;20093;-66
2021/06/11 03:25:07;;;;;;;30.65;18.65;;;14.70;90.00;;;;;;5049797;28;20119;-65
2021/06/11 03:27:42;;;;;;;28.65;17.80;;;16.10;90.60;;;;;;5050344;28;20109;-66
2021/06/11 03:30:11;;;;;;;29.05;17.83;;;15.30;90.00;;;;;;5049613;28;20124;-66
2021/06/11 03:32:44;;;;;;;27.80;16.75;;;15.30;89.50;;;;;;5050297;28;20097;-66
2021/06/11 03:35:35;;;;;;;27.50;16.92;;;15.30;89.60;;;;;;5047734;28;20086;-66
2021/06/11 03:38:03;;;;;;;27.30;16.83;;;15.30;89.20;;;;;;5051163;28;20101;-65
2021/06/11 03:40:40;;;;;;;31.27;18.42;;;15.30;89.10;;;;;;5049444;28;20105;-65
2021/06/11 03:43:11;;;;;;;32.42;18.45;;;15.70;89.20;;;;;;5049484;28;20103;-66
2021/06/11 03:45:41;;;;;;;30.25;18.73;;;15.00;90.20;;;;;;5038953;28;20100;-65
2021/06/11 03:48:10;;;;;;;30.05;18.23;;;15.30;90.00;;;;;;5050572;28;20108;-66
2021/06/11 03:50:38;;;;;;;31.50;18.27;;;15.30;90.10;;;;;;5050309;28;20082;-65
2021/06/11 03:53:06;;;;;;;34.70;20.00;;;15.30;90.50;;;;;;5050178;28;20094;-65
2021/06/11 03:55:40;;;;;;;30.83;18.65;;;15.30;90.30;;;;;;5048571;28;20096;-66
2021/06/11 03:58:35;;;;;;;32.85;18.92;;;15.20;91.10;;;;;;5049433;28;20100;-66
2021/06/11 04:01:05;;;;;;;32.30;17.58;;;15.30;90.90;;;;;;5043590;28;20116;-66
2021/06/11 04:03:31;;;;;;;33.83;18.93;;;15.60;91.30;;;;;;5050338;28;20163;-65
2021/06/11 04:06:35;;;;;;;30.02;18.20;;;15.20;91.30;;;;;;5063168;28;20139;-66
2021/06/11 04:09:06;;;;;;;32.17;18.80;;;15.20;90.90;;;;;;5048153;28;20100;-65
2021/06/11 04:11:38;;;;;;;32.08;19.17;;;15.30;91.10;;;;;;5040923;28;20181;-66
2021/06/11 04:14:05;;;;;;;33.83;18.67;;;15.30;91.00;;;;;;5045405;28;20112;-66
2021/06/11 04:16:53;;;;;;;29.67;18.75;;;15.70;90.90;;;;;;5044580;28;20096;-67
2021/06/11 04:19:29;;;;;;;33.85;18.42;;;15.40;91.10;;;;;;5043714;28;20085;-66
2021/06/11 04:21:58;;;;;;;35.28;19.65;;;14.90;91.70;;;;;;5048737;28;20090;-66
2021/06/11 04:24:31;;;;;;;31.05;18.65;;;14.30;90.80;;;;;;5044454;28;20093;-65
2021/06/11 04:26:59;;;;;;;35.70;19.67;;;15.40;91.20;;;;;;5048458;28;20473;-66
2021/06/11 04:29:27;;;;;;;32.60;19.73;;;15.30;91.40;;;;;;5048073;28;20093;-66
2021/06/11 04:31:54;;;;;;;33.65;18.67;;;15.40;91.20;;;;;;5048172;28;20089;-66
2021/06/11 04:34:20;;;;;;;33.47;20.60;;;15.40;91.50;;;;;;5044969;28;20557;-66
2021/06/11 04:36:48;;;;;;;32.92;19.77;;;15.40;91.50;;;;;;5045303;28;20090;-65
2021/06/11 04:39:14;;;;;;;37.28;20.98;;;15.30;92.00;;;;;;5043191;28;20169;-66
2021/06/11 04:41:41;;;;;;;39.67;24.45;;;15.40;92.10;;;;;;5043559;28;20461;-65
2021/06/11 04:44:09;;;;;;;35.28;21.30;;;16.50;92.30;;;;;;5028733;28;20184;-66
2021/06/11 04:46:42;;;;;;;37.97;20.92;;;15.50;91.60;;;;;;5048397;28;20158;-65
2021/06/11 04:49:08;;;;;;;33.78;21.60;;;15.80;91.60;;;;;;5047960;28;20125;-63
2021/06/11 04:51:36;;;;;;;42.55;23.13;;;15.60;91.60;;;;;;5075437;28;20091;-66
2021/06/11 04:54:02;;;;;;;36.35;22.45;;;16.60;92.40;;;;;;5060376;28;20117;-66
2021/06/11 04:56:28;;;;;;;37.13;22.50;;;15.70;91.80;;;;;;5043604;28;20172;-67
2021/06/11 04:58:55;;;;;;;40.40;23.10;;;16.60;92.00;;;;;;5048632;28;20117;-67
2021/06/11 05:01:21;;;;;;;40.97;22.42;;;16.10;91.90;;;;;;5048080;28;20164;-67
2021/06/11 05:03:48;;;;;;;44.33;25.00;;;16.00;92.20;;;;;;5048576;28;20111;-66
2021/06/11 05:06:14;;;;;;;41.08;22.90;;;15.20;91.70;;;;;;5047259;28;20462;-66
2021/06/11 05:08:43;;;;;;;41.08;23.45;;;16.00;91.90;;;;;;5040580;28;20105;-66
2021/06/11 05:11:09;;;;;;;47.78;26.60;;;16.10;92.60;;;;;;5046127;28;20100;-66
2021/06/11 05:13:42;;;;;;;41.28;24.23;;;16.00;92.50;;;;;;5045971;28;20100;-65
2021/06/11 05:16:08;;;;;;;43.80;24.55;;;16.40;92.60;;;;;;5044837;28;20117;-67
2021/06/11 05:18:35;;;;;;;46.63;25.00;;;16.40;92.50;;;;;;5042427;28;20090;-67
2021/06/11 05:21:03;;;;;;;46.78;27.45;;;15.80;92.20;;;;;;5046935;28;20093;-66
2021/06/11 05:23:31;;;;;;;53.20;29.00;;;16.70;92.70;;;;;;5046806;28;20109;-67
2021/06/11 05:25:59;;;;;;;47.33;27.60;;;16.60;93.00;;;;;;5048549;28;20101;-66
2021/06/11 05:28:25;;;;;;;46.30;28.05;;;16.60;92.50;;;;;;5042399;28;20093;-66
2021/06/11 05:30:57;;;;;;;52.58;28.02;;;16.80;92.40;;;;;;5047615;28;20577;-65
2021/06/11 05:33:26;;;;;;;48.03;27.63;;;17.10;92.40;;;;;;5046138;28;20172;-66
2021/06/11 05:35:57;;;;;;;41.88;24.15;;;16.90;92.30;;;;;;5035817;28;20515;-66
2021/06/11 05:38:23;;;;;;;43.70;25.52;;;17.00;92.20;;;;;;5043802;28;20085;-65
2021/06/11 05:40:58;;;;;;;48.45;27.63;;;18.60;92.50;;;;;;5047796;28;20093;-67
2021/06/11 05:43:26;;;;;;;44.38;26.35;;;17.80;92.00;;;;;;5047547;28;20177;-67
2021/06/11 05:46:13;;;;;;;45.40;28.33;;;17.20;91.90;;;;;;5042496;28;20090;-67
2021/06/11 05:48:41;;;;;;;46.85;27.88;;;17.50;92.10;;;;;;5038313;28;20432;-67
2021/06/11 05:51:07;;;;;;;42.83;24.45;;;17.40;92.20;;;;;;5046567;28;20132;-67
2021/06/11 05:53:40;;;;;;;43.38;25.70;;;17.40;91.80;;;;;;5043406;28;20118;-66
2021/06/11 05:56:07;;;;;;;43.08;26.02;;;17.50;91.70;;;;;;5045195;28;20088;-68
2021/06/11 05:58:36;;;;;;;41.03;23.48;;;17.60;91.70;;;;;;5046899;28;20435;-67
2021/06/11 06:01:16;;;;;;;44.38;27.05;;;17.70;91.70;;;;;;5036831;28;20090;-66
2021/06/11 06:03:42;;;;;;;44.85;27.40;;;17.80;91.70;;;;;;5038975;28;20096;-67
2021/06/11 06:06:14;;;;;;;37.55;22.63;;;17.80;91.60;;;;;;5074635;28;20546;-67
2021/06/11 06:08:47;;;;;;;37.60;23.38;;;16.90;90.70;;;;;;5042535;28;20498;-68
2021/06/11 06:11:14;;;;;;;34.72;22.23;;;18.50;90.80;;;;;;5039896;28;20151;-66
2021/06/11 06:13:42;;;;;;;36.53;21.58;;;18.10;91.10;;;;;;5076035;28;20098;-67
2021/06/11 06:16:14;;;;;;;32.97;21.80;;;18.30;90.40;;;;;;5036811;28;20098;-67
2021/06/11 06:18:40;;;;;;;31.08;20.35;;;18.30;90.20;;;;;;5046056;28;20104;-68
2021/06/11 06:21:06;;;;;;;27.95;19.75;;;19.60;90.00;;;;;;5047634;28;20527;-67
2021/06/11 06:23:33;;;;;;;34.83;21.38;;;18.20;89.30;;;;;;5050116;28;20085;-66
2021/06/11 06:26:01;;;;;;;30.38;18.92;;;18.60;89.50;;;;;;5050672;28;20093;-67
2021/06/11 06:28:35;;;;;;;31.55;20.35;;;18.60;88.10;;;;;;5048824;28;20195;-68
2021/06/11 06:31:02;;;;;;;36.75;21.83;;;18.80;88.50;;;;;;5051630;28;20101;-67
2021/06/11 06:33:48;;;;;;;35.70;22.98;;;18.80;88.80;;;;;;5048558;28;20544;-69
2021/06/11 06:36:14;;;;;;;35.75;21.02;;;18.90;88.80;;;;;;5050241;28;20509;-67
2021/06/11 06:38:40;;;;;;;35.33;20.25;;;18.90;88.40;;;;;;5049514;28;20086;-66
2021/06/11 06:41:08;;;;;;;37.47;23.08;;;19.00;87.80;;;;;;5047791;28;20470;-67
2021/06/11 06:43:35;;;;;;;41.53;22.23;;;19.10;87.60;;;;;;5040456;28;20093;-67
2021/06/11 06:46:01;;;;;;;35.92;22.52;;;19.20;87.50;;;;;;5051176;28;20085;-67
2021/06/11 06:48:31;;;;;;;32.95;21.40;;;19.20;86.80;;;;;;5050434;28;20609;-67
2021/06/11 06:50:59;;;;;;;37.70;22.83;;;19.40;84.90;;;;;;5050535;28;20594;-67
2021/06/11 06:53:25;;;;;;;30.52;19.23;;;19.50;83.70;;;;;;5048397;28;20160;-66
2021/06/11 06:55:51;;;;;;;31.25;20.05;;;19.50;84.30;;;;;;5042297;28;20097;-67
2021/06/11 06:58:17;;;;;;;33.25;20.13;;;19.70;82.70;;;;;;5082530;28;20109;-67
2021/06/11 07:00:43;;;;;;;34.03;20.67;;;19.60;83.00;;;;;;5048644;28;20523;-66
2021/06/11 07:03:09;;;;;;;28.58;18.83;;;19.70;82.90;;;;;;5044145;28;20565;-67
2021/06/11 07:05:35;;;;;;;35.03;18.45;;;19.80;83.00;;;;;;5046650;28;20089;-64
2021/06/11 07:08:11;;;;;;;19.83;12.50;;;19.90;80.60;;;;;;5049506;28;20108;-63
2021/06/11 07:10:37;;;;;;;21.70;12.18;;;19.90;79.40;;;;;;5050488;28;20093;-66
2021/06/11 07:13:04;;;;;;;16.30;9.35;;;20.00;79.50;;;;;;5048502;28;20116;-65
2021/06/11 07:15:30;;;;;;;20.17;12.45;;;20.00;79.20;;;;;;5050479;28;20094;-63
2021/06/11 07:17:57;;;;;;;19.45;12.35;;;20.10;78.80;;;;;;5052685;28;20100;-66
2021/06/11 07:20:24;;;;;;;19.67;12.93;;;20.20;78.90;;;;;;5045770;28;20167;-66
2021/06/11 07:22:50;;;;;;;20.20;11.37;;;20.30;78.60;;;;;;4348851;28;10000843;-66
2021/06/11 07:25:18;;;;;;;16.13;10.23;;;20.80;76.90;;;;;;5040458;28;20240;-66
2021/06/11 07:27:44;;;;;;;12.98;8.38;;;21.60;74.80;;;;;;5044310;28;20105;-67
2021/06/11 07:30:11;;;;;;;15.20;9.60;;;22.20;69.70;;;;;;5043262;28;20933;-68
2021/06/11 07:32:39;;;;;;;12.38;8.73;;;22.70;67.70;;;;;;5074492;28;20097;-68
2021/06/11 07:35:07;;;;;;;17.25;10.43;;;23.20;66.90;;;;;;5066591;28;20090;-66
2021/06/11 07:37:42;;;;;;;13.40;9.55;;;23.50;65.60;;;;;;5041492;28;20093;-67
2021/06/11 07:40:10;;;;;;;11.93;7.85;;;23.90;64.60;;;;;;5041669;28;20164;-68
2021/06/11 07:42:37;;;;;;;12.25;8.45;;;24.30;62.00;;;;;;5060527;28;20093;-67
2021/06/11 07:45:05;;;;;;;11.95;7.95;;;24.60;62.90;;;;;;5040299;28;20086;-66
2021/06/11 07:47:34;;;;;;;11.00;7.88;;;24.90;61.40;;;;;;5064612;28;20626;-66
2021/06/11 07:50:14;;;;;;;10.27;7.30;;;25.20;59.50;;;;;;5074434;28;20587;-65
2021/06/11 07:52:49;;;;;;;10.57;7.50;;;25.50;57.40;;;;;;5040918;28;20546;-69
2021/06/11 07:55:17;;;;;;;9.43;6.87;;;25.70;57.30;;;;;;5035609;28;20086;-67
2021/06/11 07:58:03;;;;;;;11.68;8.18;;;26.00;56.00;;;;;;5046213;28;20105;-69
2021/06/11 08:00:31;;;;;;;11.30;7.90;;;26.20;53.80;;;;;;5040852;28;20653;-67
2021/06/11 08:03:17;;;;;;;15.10;10.45;;;26.40;54.20;;;;;;5045131;28;20132;-68
2021/06/11 08:05:44;;;;;;;13.73;10.60;;;26.90;53.30;;;;;;5034450;28;20097;-67
2021/06/11 08:08:10;;;;;;;15.68;10.02;;;26.60;54.90;;;;;;5044372;28;20159;-67
2021/06/11 08:10:41;;;;;;;14.40;9.60;;;26.90;53.10;;;;;;5041233;28;20097;-67
2021/06/11 08:13:09;;;;;;;13.60;9.55;;;26.90;54.60;;;;;;5055352;28;20101;-66
2021/06/11 08:15:36;;;;;;;12.82;9.30;;;27.00;54.60;;;;;;5042317;28;20097;-66
2021/06/11 08:18:04;;;;;;;11.90;9.20;;;27.00;52.30;;;;;;5043974;28;20122;-65
2021/06/11 08:20:33;;;;;;;11.32;7.88;;;27.10;53.40;;;;;;5039311;28;20123;-67
2021/06/11 08:23:13;;;;;;;13.07;8.30;;;27.10;51.90;;;;;;5035999;28;20176;-66
2021/06/11 08:25:40;;;;;;;12.93;8.80;;;27.30;51.80;;;;;;5077853;28;20095;-66
2021/06/11 08:28:26;;;;;;;13.35;9.15;;;27.50;50.70;;;;;;5042412;28;20109;-68
2021/06/11 08:30:53;;;;;;;13.93;9.80;;;27.50;50.20;;;;;;5044545;28;20473;-67
2021/06/11 08:33:20;;;;;;;13.93;10.48;;;27.50;51.40;;;;;;5043309;28;20086;-66
2021/06/11 08:35:46;;;;;;;14.38;10.25;;;27.20;52.10;;;;;;5037500;28;20099;-65
2021/06/11 08:38:13;;;;;;;12.45;8.27;;;27.30;50.40;;;;;;5040981;28;20093;-68
2021/06/11 08:40:42;;;;;;;12.05;8.57;;;27.30;50.70;;;;;;5044492;28;20577;-68
2021/06/11 08:43:09;;;;;;;13.07;9.27;;;27.10;51.80;;;;;;5034880;28;20090;-67
2021/06/11 08:45:39;;;;;;;13.10;9.05;;;27.30;51.00;;;;;;5041287;28;20097;-70
2021/06/11 08:48:08;;;;;;;14.60;10.02;;;27.70;50.80;;;;;;5033423;28;20266;-65
2021/06/11 08:50:35;;;;;;;12.18;8.93;;;28.00;50.40;;;;;;5043762;28;20121;-66
2021/06/11 08:53:05;;;;;;;13.57;9.80;;;28.00;50.90;;;;;;5044941;28;20105;-65
2021/06/11 08:55:34;;;;;;;11.90;7.65;;;27.80;49.80;;;;;;5043959;28;20093;-64
2021/06/11 08:58:06;;;;;;;12.93;7.93;;;28.00;50.10;;;;;;5074498;28;20120;-67
2021/06/11 09:00:39;;;;;;;12.27;7.28;;;28.10;48.70;;;;;;5040848;28;20535;-67
2021/06/11 09:03:22;;;;;;;12.63;9.02;;;28.00;49.60;;;;;;5046765;28;20096;-66
2021/06/11 09:05:59;;;;;;;13.65;9.07;;;27.60;50.60;;;;;;5043760;28;20446;-66
2021/06/11 09:08:29;;;;;;;13.52;10.50;;;27.80;50.70;;;;;;5045751;28;20139;-66
2021/06/11 09:11:18;;;;;;;11.77;8.93;;;27.70;49.50;;;;;;5041504;28;20469;-66
2021/06/11 09:14:16;;;;;;;11.00;7.75;;;27.60;50.30;;;;;;5036267;28;20190;-65
2021/06/11 09:16:49;;;;;;;13.30;9.00;;;27.20;50.90;;;;;;5058533;28;20136;-65
2021/06/11 09:19:19;;;;;;;13.43;8.65;;;27.00;50.50;;;;;;5028966;28;20097;-67
2021/06/11 09:21:58;;;;;;;12.93;9.65;;;26.50;52.70;;;;;;5043427;28;20535;-68
2021/06/11 09:24:33;;;;;;;15.93;10.07;;;26.30;53.70;;;;;;5037282;28;20093;-66
2021/06/11 09:27:06;;;;;;;15.57;10.02;;;26.10;53.90;;;;;;5040320;28;20571;-67
2021/06/11 09:29:45;;;;;;;15.65;11.55;;;25.50;55.80;;;;;;5042683;28;20312;-66
2021/06/11 09:32:30;;;;;;;16.50;9.82;;;25.40;56.90;;;;;;5043500;28;20142;-64
2021/06/11 09:34:59;;;;;;;20.40;12.50;;;25.30;56.40;;;;;;5037671;28;20543;-66
2021/06/11 09:37:31;;;;;;;16.17;11.23;;;25.70;57.20;;;;;;5043391;28;20454;-65
2021/06/11 09:40:03;;;;;;;18.20;12.25;;;26.00;56.20;;;;;;5086351;28;20132;-64
2021/06/11 09:42:34;;;;;;;16.27;11.95;;;26.10;56.50;;;;;;5043943;28;20096;-65
2021/06/11 09:45:11;;;;;;;16.10;10.40;;;26.60;53.70;;;;;;5041295;28;20189;-64
2021/06/11 09:47:39;;;;;;;14.98;10.02;;;26.30;54.00;;;;;;5043830;28;20120;-64
2021/06/11 09:50:16;;;;;;;13.15;10.13;;;26.10;53.60;;;;;;5041690;28;20121;-64
2021/06/11 09:53:07;;;;;;;14.57;9.63;;;26.20;54.50;;;;;;5042282;28;20097;-64
2021/06/11 09:55:40;;;;;;;14.80;10.45;;;26.50;54.00;;;;;;5043568;28;20113;-64
2021/06/11 09:58:08;;;;;;;8.52;6.22;;;26.40;54.30;;;;;;5045043;28;20089;-64
2021/06/11 10:00:37;;;;;;;12.18;6.82;;;26.40;52.10;;;;;;4702616;28;10000297;-66
2021/06/11 10:03:11;;;;;;;11.23;7.53;;;26.10;53.40;;;;;;5058931;28;20502;-67
2021/06/11 10:05:38;;;;;;;14.00;8.15;;;25.90;54.40;;;;;;5046145;28;20103;-65
2021/06/11 10:08:05;;;;;;;11.23;7.57;;;25.80;54.10;;;;;;5050093;28;20139;-65
2021/06/11 10:10:31;;;;;;;11.75;8.35;;;25.60;54.40;;;;;;5042842;28;20093;-64
2021/06/11 10:12:58;;;;;;;15.73;8.77;;;25.40;55.40;;;;;;5065045;28;20215;-65
2021/06/11 10:15:24;;;;;;;11.82;8.18;;;25.40;56.40;;;;;;5049626;28;20089;-64
2021/06/11 10:17:50;;;;;;;14.00;8.85;;;25.50;56.30;;;;;;5051590;28;20497;-63
2021/06/11 10:20:17;;;;;;;12.32;8.05;;;25.50;57.30;;;;;;5052887;28;20143;-64
2021/06/11 10:22:43;;;;;;;10.70;7.40;;;25.50;55.70;;;;;;5045017;28;20465;-64
2021/06/11 10:25:12;;;;;;;11.73;8.15;;;25.60;55.00;;;;;;5056403;28;20159;-65
2021/06/11 10:27:42;;;;;;;11.18;7.57;;;25.60;55.00;;;;;;5046413;28;20111;-64
2021/06/11 10:30:10;;;;;;;13.70;8.20;;;25.50;55.70;;;;;;5051657;28;20120;-65
2021/06/11 10:32:40;;;;;;;13.27;8.20;;;25.40;56.70;;;;;;5051066;28;20093;-64
2021/06/11 10:35:08;;;;;;;12.75;8.05;;;25.30;58.10;;;;;;5047476;28;20092;-64
2021/06/11 10:37:45;;;;;;;10.82;7.28;;;25.40;57.70;;;;;;5052178;28;20170;-63
2021/06/11 10:40:21;;;;;;;10.63;6.80;;;25.50;57.50;;;;;;5046094;28;20086;-64
2021/06/11 10:42:49;;;;;;;13.27;8.98;;;25.50;56.30;;;;;;5047394;28;20101;-65
2021/06/11 10:45:42;;;;;;;15.57;9.85;;;25.50;56.40;;;;;;5049702;28;20147;-64
2021/06/11 10:48:08;;;;;;;11.65;7.80;;;25.40;57.00;;;;;;5050596;28;20109;-63
2021/06/11 10:50:35;;;;;;;11.20;7.43;;;25.50;57.30;;;;;;5045278;28;20578;-63
2021/06/11 10:53:37;;;;;;;10.57;7.43;;;25.60;55.20;;;;;;5050565;28;20244;-63
2021/06/11 10:56:16;;;;;;;12.55;7.85;;;25.80;55.10;;;;;;5043309;28;20093;-65
2021/06/11 10:58:44;;;;;;;9.73;7.07;;;25.80;55.70;;;;;;5049783;28;20108;-64
2021/06/11 11:01:29;;;;;;;11.95;8.27;;;25.60;55.10;;;;;;5049687;28;20551;-64
2021/06/11 11:04:16;;;;;;;13.43;8.30;;;25.30;56.70;;;;;;5048617;28;20123;-64
2021/06/11 11:06:43;;;;;;;12.20;8.32;;;25.20;57.20;;;;;;4000588;28;10001031;-65
2021/06/11 11:09:08;;;;;;;12.32;8.63;;;25.70;56.80;;;;;;5039922;28;20105;-65
2021/06/11 11:11:37;;;;;;;10.15;8.18;;;25.30;56.50;;;;;;5047161;28;20090;-66
2021/06/11 11:14:05;;;;;;;9.13;5.90;;;25.40;56.70;;;;;;5052669;28;20101;-66
2021/06/11 11:16:35;;;;;;;7.75;6.10;;;25.30;55.40;;;;;;5045157;28;20131;-67
2021/06/11 11:19:05;;;;;;;8.07;6.30;;;25.50;56.00;;;;;;5077200;28;20101;-65
2021/06/11 11:21:34;;;;;;;11.07;7.72;;;25.30;56.30;;;;;;5047163;28;20100;-64
2021/06/11 11:24:12;;;;;;;9.40;7.20;;;25.30;56.30;;;;;;5045078;28;20093;-65
2021/06/11 11:26:45;;;;;;;7.40;5.72;;;25.80;54.60;;;;;;5042056;28;20519;-65
2021/06/11 11:29:13;;;;;;;7.25;4.85;;;25.40;55.00;;;;;;5046880;28;20094;-64
2021/06/11 11:31:40;;;;;;;6.97;4.60;;;25.70;53.10;;;;;;5047576;28;20097;-64
2021/06/11 11:34:07;;;;;;;6.78;4.22;;;26.00;49.90;;;;;;5048718;28;20507;-66
2021/06/11 11:36:39;;;;;;;5.60;4.50;;;26.40;50.00;;;;;;5076426;28;20093;-66
2021/06/11 11:39:08;;;;;;;11.80;6.90;;;26.20;50.50;;;;;;5043790;28;20093;-63
2021/06/11 11:41:36;;;;;;;9.95;7.03;;;26.20;52.70;;;;;;5043101;28;20404;-64
2021/06/11 11:44:03;;;;;;;10.70;6.30;;;26.10;54.00;;;;;;5046555;28;20089;-65
2021/06/11 11:46:30;;;;;;;7.68;5.22;;;26.10;51.10;;;;;;5046550;28;20094;-63
2021/06/11 11:48:56;;;;;;;12.20;6.43;;;26.10;51.70;;;;;;5045090;28;20473;-63
2021/06/11 11:51:23;;;;;;;10.88;6.63;;;26.30;51.50;;;;;;5043290;28;20109;-65
2021/06/11 11:53:49;;;;;;;9.27;6.20;;;26.00;50.20;;;;;;5041687;28;20096;-64
2021/06/11 11:56:15;;;;;;;12.25;6.68;;;26.30;51.00;;;;;;5048083;28;20101;-64
2021/06/11 11:58:42;;;;;;;8.80;6.28;;;26.30;52.50;;;;;;5046099;28;20097;-64
2021/06/11 12:01:13;;;;;;;12.27;7.40;;;26.60;50.20;;;;;;5048715;28;20096;-62
2021/06/11 12:03:46;;;;;;;13.13;7.97;;;26.60;50.70;;;;;;5043204;28;20092;-65
2021/06/11 12:06:12;;;;;;;11.50;8.60;;;26.50;51.40;;;;;;5048125;28;20089;-65
2021/06/11 12:08:39;;;;;;;12.00;8.43;;;25.60;52.00;;;;;;5047701;28;20113;-65
2021/06/11 12:11:05;;;;;;;14.10;9.18;;;25.90;52.50;;;;;;5043917;28;20498;-65
2021/06/11 12:13:40;;;;;;;13.23;8.73;;;25.80;53.30;;;;;;5045907;28;20093;-65
2021/06/11 12:16:06;;;;;;;15.50;10.27;;;25.60;54.20;;;;;;5047285;28;20092;-64
2021/06/11 12:18:34;;;;;;;12.18;8.90;;;25.60;54.70;;;;;;4346617;28;10000690;-64
2021/06/11 12:21:07;;;;;;;13.18;9.00;;;25.50;55.30;;;;;;5069204;28;20090;-64
2021/06/11 12:23:40;;;;;;;13.55;8.82;;;25.50;55.00;;;;;;5072879;28;20096;-65
2021/06/11 12:26:06;;;;;;;14.55;8.95;;;25.50;55.30;;;;;;5046216;28;20196;-65
2021/06/11 12:28:35;;;;;;;13.15;9.57;;;25.40;55.50;;;;;;5044951;28;20843;-64
2021/06/11 12:31:01;;;;;;;11.82;8.25;;;25.40;56.20;;;;;;5043767;28;20097;-63
2021/06/11 12:33:29;;;;;;;12.20;7.20;;;26.50;53.40;;;;;;5044312;28;20142;-65
2021/06/11 12:35:55;;;;;;;11.60;6.53;;;26.10;53.80;;;;;;5050632;28;20085;-63
2021/06/11 12:38:22;;;;;;;9.88;6.00;;;26.40;52.70;;;;;;5044595;28;20089;-66
2021/06/11 12:40:49;;;;;;;9.70;7.60;;;26.40;51.40;;;;;;5043756;28;20104;-65
2021/06/11 12:43:19;;;;;;;10.77;8.30;;;26.60;51.70;;;;;;5075997;28;20097;-67
2021/06/11 12:45:45;;;;;;;17.35;11.00;;;25.40;52.70;;;;;;5043890;28;20101;-65